sensor_id;sensor_type;location;lat;lon;timestamp;pressure;altitude;pressure_sealevel;temperature;humidity
26531;BME280;14201;43.188;24.160;2023-02-19T00:00:57;99701.91;;;5.79;68.96
26531;BME280;14201;43.188;24.160;2023-02-19T00:03:23;99701.91;;;5.79;69.58
26531;BME280;14201;43.188;24.160;2023-02-19T00:05:48;99698.56;;;5.80;69.28
26531;BME280;14201;43.188;24.160;2023-02-19T00:08:14;99706.00;;;5.76;69.70
26531;BME280;14201;43.188;24.160;2023-02-19T00:10:39;99704.34;;;5.76;70.20
26531;BME280;14201;43.188;24.160;2023-02-19T00:13:05;99694.72;;;5.60;71.87
26531;BME280;14201;43.188;24.160;2023-02-19T00:15:31;99697.78;;;5.68;70.99
26531;BME280;14201;43.188;24.160;2023-02-19T00:17:56;99699.63;;;5.29;70.91
26531;BME280;14201;43.188;24.160;2023-02-19T00:20:21;99695.56;;;5.19;72.36
26531;BME280;14201;43.188;24.160;2023-02-19T00:22:47;99697.75;;;5.40;71.11
26531;BME280;14201;43.188;24.160;2023-02-19T00:25:12;99693.66;;;5.57;71.44
26531;BME280;14201;43.188;24.160;2023-02-19T00:27:38;99692.44;;;5.65;71.03
26531;BME280;14201;43.188;24.160;2023-02-19T00:30:03;99693.22;;;5.64;70.77
26531;BME280;14201;43.188;24.160;2023-02-19T00:32:29;99696.88;;;5.67;71.11
26531;BME280;14201;43.188;24.160;2023-02-19T00:34:54;99691.41;;;5.76;70.51
26531;BME280;14201;43.188;24.160;2023-02-19T00:37:19;99699.34;;;5.79;71.04
26531;BME280;14201;43.188;24.160;2023-02-19T00:39:45;99700.63;;;5.86;71.34
26531;BME280;14201;43.188;24.160;2023-02-19T00:42:10;99716.03;;;5.84;71.11
26531;BME280;14201;43.188;24.160;2023-02-19T00:44:36;99722.75;;;6.09;72.19
26531;BME280;14201;43.188;24.160;2023-02-19T00:47:01;99723.63;;;6.53;70.88
26531;BME280;14201;43.188;24.160;2023-02-19T00:49:26;99724.81;;;6.87;69.99
26531;BME280;14201;43.188;24.160;2023-02-19T00:51:52;99730.53;;;6.82;70.37
26531;BME280;14201;43.188;24.160;2023-02-19T00:54:17;99742.72;;;6.55;71.07
26531;BME280;14201;43.188;24.160;2023-02-19T00:56:43;99740.44;;;6.59;70.74
26531;BME280;14201;43.188;24.160;2023-02-19T00:59:09;99738.75;;;6.75;70.82
26531;BME280;14201;43.188;24.160;2023-02-19T01:01:34;99731.31;;;6.96;70.03
26531;BME280;14201;43.188;24.160;2023-02-19T01:04:00;99727.22;;;7.29;68.39
26531;BME280;14201;43.188;24.160;2023-02-19T01:06:25;99727.13;;;7.59;66.96
26531;BME280;14201;43.188;24.160;2023-02-19T01:08:54;99723.47;;;8.03;65.05
26531;BME280;14201;43.188;24.160;2023-02-19T01:11:19;99722.47;;;7.84;65.36
26531;BME280;14201;43.188;24.160;2023-02-19T01:13:45;99722.09;;;7.93;64.93
26531;BME280;14201;43.188;24.160;2023-02-19T01:16:18;99717.25;;;7.99;64.75
26531;BME280;14201;43.188;24.160;2023-02-19T01:18:44;99719.41;;;8.08;64.94
26531;BME280;14201;43.188;24.160;2023-02-19T01:21:17;99710.97;;;8.12;64.93
26531;BME280;14201;43.188;24.160;2023-02-19T01:23:43;99701.75;;;8.17;64.19
26531;BME280;14201;43.188;24.160;2023-02-19T01:26:19;99705.94;;;8.32;63.86
26531;BME280;14201;43.188;24.160;2023-02-19T01:28:45;99710.34;;;8.33;64.11
26531;BME280;14201;43.188;24.160;2023-02-19T01:31:12;99713.03;;;8.51;64.13
26531;BME280;14201;43.188;24.160;2023-02-19T01:33:38;99716.69;;;9.06;62.92
26531;BME280;14201;43.188;24.160;2023-02-19T01:36:04;99713.00;;;9.19;62.37
26531;BME280;14201;43.188;24.160;2023-02-19T01:38:30;99715.41;;;9.33;62.24
26531;BME280;14201;43.188;24.160;2023-02-19T01:41:00;99715.31;;;9.31;62.36
26531;BME280;14201;43.188;24.160;2023-02-19T01:43:26;99720.13;;;9.41;62.23
26531;BME280;14201;43.188;24.160;2023-02-19T01:45:52;99726.19;;;9.78;61.34
26531;BME280;14201;43.188;24.160;2023-02-19T01:48:22;99726.19;;;9.78;60.91
26531;BME280;14201;43.188;24.160;2023-02-19T01:50:50;99724.47;;;9.78;60.88
26531;BME280;14201;43.188;24.160;2023-02-19T01:53:18;99725.09;;;9.92;60.81
26531;BME280;14201;43.188;24.160;2023-02-19T01:55:45;99733.13;;;9.97;59.72
26531;BME280;14201;43.188;24.160;2023-02-19T01:58:12;99734.97;;;9.99;59.24
26531;BME280;14201;43.188;24.160;2023-02-19T02:00:38;99739.97;;;9.95;59.13
26531;BME280;14201;43.188;24.160;2023-02-19T02:03:04;99748.41;;;10.09;58.08
26531;BME280;14201;43.188;24.160;2023-02-19T02:05:49;99743.53;;;9.97;58.52
26531;BME280;14201;43.188;24.160;2023-02-19T02:08:17;99746.00;;;10.13;57.50
26531;BME280;14201;43.188;24.160;2023-02-19T02:11:02;99743.59;;;10.36;56.53
26531;BME280;14201;43.188;24.160;2023-02-19T02:13:28;99739.59;;;10.24;56.99
26531;BME280;14201;43.188;24.160;2023-02-19T02:18:53;99748.63;;;10.13;56.85
26531;BME280;14201;43.188;24.160;2023-02-19T02:21:28;99747.47;;;10.07;56.71
26531;BME280;14201;43.188;24.160;2023-02-19T02:29:20;99759.16;;;9.97;56.63
26531;BME280;14201;43.188;24.160;2023-02-19T02:32:05;99767.69;;;9.94;56.81
26531;BME280;14201;43.188;24.160;2023-02-19T02:34:35;99770.03;;;9.70;57.31
26531;BME280;14201;43.188;24.160;2023-02-19T02:37:01;99771.16;;;9.57;57.79
26531;BME280;14201;43.188;24.160;2023-02-19T02:39:28;99771.22;;;9.59;57.64
26531;BME280;14201;43.188;24.160;2023-02-19T02:41:58;99785.03;;;9.40;58.46
26531;BME280;14201;43.188;24.160;2023-02-19T02:44:42;99786.88;;;9.24;58.86
26531;BME280;14201;43.188;24.160;2023-02-19T02:47:26;99793.31;;;9.15;58.89
26531;BME280;14201;43.188;24.160;2023-02-19T02:50:08;99799.84;;;9.06;58.59
26531;BME280;14201;43.188;24.160;2023-02-19T02:52:34;99802.78;;;8.96;59.34
26531;BME280;14201;43.188;24.160;2023-02-19T02:55:20;99796.31;;;8.88;59.50
26531;BME280;14201;43.188;24.160;2023-02-19T02:57:46;99799.66;;;8.69;59.93
26531;BME280;14201;43.188;24.160;2023-02-19T03:00:12;99798.19;;;8.58;60.34
26531;BME280;14201;43.188;24.160;2023-02-19T03:02:38;99791.16;;;8.55;60.02
26531;BME280;14201;43.188;24.160;2023-02-19T03:05:08;99797.63;;;8.47;60.44
26531;BME280;14201;43.188;24.160;2023-02-19T03:07:59;99800.81;;;8.41;61.13
26531;BME280;14201;43.188;24.160;2023-02-19T03:12:53;99805.94;;;8.08;61.87
26531;BME280;14201;43.188;24.160;2023-02-19T03:15:42;99812.28;;;7.67;63.35
26531;BME280;14201;43.188;24.160;2023-02-19T03:18:28;99813.53;;;7.74;63.01
26531;BME280;14201;43.188;24.160;2023-02-19T03:21:13;99813.13;;;7.83;63.47
26531;BME280;14201;43.188;24.160;2023-02-19T03:23:40;99809.84;;;7.85;63.31
26531;BME280;14201;43.188;24.160;2023-02-19T03:26:24;99801.53;;;7.76;63.35
26531;BME280;14201;43.188;24.160;2023-02-19T03:28:50;99805.22;;;7.65;63.38
26531;BME280;14201;43.188;24.160;2023-02-19T03:31:35;99815.69;;;7.66;63.28
26531;BME280;14201;43.188;24.160;2023-02-19T03:34:03;99815.56;;;7.48;64.59
26531;BME280;14201;43.188;24.160;2023-02-19T03:37:14;99825.81;;;7.47;64.75
26531;BME280;14201;43.188;24.160;2023-02-19T03:39:19;99823.31;;;7.48;64.59
26531;BME280;14201;43.188;24.160;2023-02-19T03:42:07;99818.78;;;7.44;64.37
26531;BME280;14201;43.188;24.160;2023-02-19T03:44:59;99822.16;;;7.43;64.79
26531;BME280;14201;43.188;24.160;2023-02-19T03:47:26;99819.19;;;7.52;64.12
26531;BME280;14201;43.188;24.160;2023-02-19T03:49:54;99813.94;;;7.51;64.07
26531;BME280;14201;43.188;24.160;2023-02-19T04:00:00;99806.94;;;7.49;64.92
26531;BME280;14201;43.188;24.160;2023-02-19T04:02:31;99803.72;;;7.54;64.75
26531;BME280;14201;43.188;24.160;2023-02-19T04:05:17;99806.59;;;7.43;64.53
26531;BME280;14201;43.188;24.160;2023-02-19T04:07:45;99809.63;;;7.36;64.98
26531;BME280;14201;43.188;24.160;2023-02-19T04:10:12;99813.84;;;7.34;64.55
26531;BME280;14201;43.188;24.160;2023-02-19T04:12:39;99811.88;;;7.30;64.95
26531;BME280;14201;43.188;24.160;2023-02-19T04:15:06;99819.50;;;7.27;67.20
26531;BME280;14201;43.188;24.160;2023-02-19T04:17:47;99824.38;;;7.52;67.20
26531;BME280;14201;43.188;24.160;2023-02-19T04:20:16;99815.56;;;8.11;65.27
26531;BME280;14201;43.188;24.160;2023-02-19T04:22:43;99805.34;;;8.62;63.44
26531;BME280;14201;43.188;24.160;2023-02-19T04:25:08;99818.03;;;9.06;63.28
26531;BME280;14201;43.188;24.160;2023-02-19T04:27:35;99812.84;;;9.59;61.31
26531;BME280;14201;43.188;24.160;2023-02-19T04:30:01;99811.94;;;9.76;61.04
26531;BME280;14201;43.188;24.160;2023-02-19T04:32:26;99803.00;;;10.07;59.96
26531;BME280;14201;43.188;24.160;2023-02-19T04:34:52;99809.16;;;10.66;57.83
26531;BME280;14201;43.188;24.160;2023-02-19T04:37:17;99808.00;;;10.79;56.90
26531;BME280;14201;43.188;24.160;2023-02-19T04:39:43;99812.38;;;10.99;56.70
26531;BME280;14201;43.188;24.160;2023-02-19T04:42:09;99806.88;;;11.13;55.93
26531;BME280;14201;43.188;24.160;2023-02-19T04:44:34;99810.44;;;11.15;55.23
26531;BME280;14201;43.188;24.160;2023-02-19T04:47:00;99814.38;;;11.26;55.63
26531;BME280;14201;43.188;24.160;2023-02-19T04:49:25;99811.78;;;11.47;54.46
26531;BME280;14201;43.188;24.160;2023-02-19T04:51:51;99806.03;;;11.77;53.26
26531;BME280;14201;43.188;24.160;2023-02-19T04:54:16;99799.97;;;11.99;52.19
26531;BME280;14201;43.188;24.160;2023-02-19T04:56:41;99808.16;;;12.08;51.85
26531;BME280;14201;43.188;24.160;2023-02-19T04:59:07;99808.09;;;11.86;52.82
26531;BME280;14201;43.188;24.160;2023-02-19T05:01:32;99825.34;;;11.82;52.49
26531;BME280;14201;43.188;24.160;2023-02-19T05:03:58;99828.44;;;11.93;52.00
26531;BME280;14201;43.188;24.160;2023-02-19T05:06:23;99820.28;;;11.85;52.21
26531;BME280;14201;43.188;24.160;2023-02-19T05:08:48;99830.22;;;11.94;51.78
26531;BME280;14201;43.188;24.160;2023-02-19T05:11:14;99828.91;;;11.84;51.93
26531;BME280;14201;43.188;24.160;2023-02-19T05:13:39;99836.00;;;11.87;52.40
26531;BME280;14201;43.188;24.160;2023-02-19T05:16:06;99834.75;;;11.77;52.14
26531;BME280;14201;43.188;24.160;2023-02-19T05:18:32;99838.31;;;11.58;53.11
26531;BME280;14201;43.188;24.160;2023-02-19T05:20:59;99853.75;;;11.53;52.79
26531;BME280;14201;43.188;24.160;2023-02-19T05:23:25;99842.44;;;11.53;52.62
26531;BME280;14201;43.188;24.160;2023-02-19T05:25:51;99853.09;;;11.57;53.06
26531;BME280;14201;43.188;24.160;2023-02-19T05:28:16;99859.91;;;11.55;53.13
26531;BME280;14201;43.188;24.160;2023-02-19T05:30:43;99863.38;;;11.54;53.15
26531;BME280;14201;43.188;24.160;2023-02-19T05:33:08;99866.88;;;11.55;53.44
26531;BME280;14201;43.188;24.160;2023-02-19T05:35:38;99871.44;;;11.39;54.38
26531;BME280;14201;43.188;24.160;2023-02-19T05:38:04;99868.28;;;11.47;53.81
26531;BME280;14201;43.188;24.160;2023-02-19T05:40:29;99868.63;;;11.35;54.46
26531;BME280;14201;43.188;24.160;2023-02-19T05:42:55;99878.25;;;11.16;55.08
26531;BME280;14201;43.188;24.160;2023-02-19T05:45:20;99876.13;;;11.27;55.13
26531;BME280;14201;43.188;24.160;2023-02-19T05:47:49;99873.53;;;11.27;54.85
26531;BME280;14201;43.188;24.160;2023-02-19T05:50:14;99875.25;;;11.27;54.71
26531;BME280;14201;43.188;24.160;2023-02-19T05:52:40;99869.41;;;11.32;54.74
26531;BME280;14201;43.188;24.160;2023-02-19T05:55:06;99876.41;;;11.33;54.82
26531;BME280;14201;43.188;24.160;2023-02-19T05:57:31;99875.28;;;11.28;55.74
26531;BME280;14201;43.188;24.160;2023-02-19T05:59:56;99879.19;;;11.38;55.58
26531;BME280;14201;43.188;24.160;2023-02-19T06:02:22;99879.91;;;11.55;54.87
26531;BME280;14201;43.188;24.160;2023-02-19T06:04:47;99884.97;;;11.71;55.18
26531;BME280;14201;43.188;24.160;2023-02-19T06:07:13;99882.78;;;12.03;54.83
26531;BME280;14201;43.188;24.160;2023-02-19T06:09:38;99886.25;;;12.02;54.46
26531;BME280;14201;43.188;24.160;2023-02-19T06:12:04;99887.75;;;12.40;53.19
26531;BME280;14201;43.188;24.160;2023-02-19T06:14:29;99891.97;;;12.59;53.02
26531;BME280;14201;43.188;24.160;2023-02-19T06:16:54;99895.63;;;12.87;52.93
26531;BME280;14201;43.188;24.160;2023-02-19T06:19:20;99902.63;;;13.12;51.82
26531;BME280;14201;43.188;24.160;2023-02-19T06:21:45;99917.03;;;13.25;52.06
26531;BME280;14201;43.188;24.160;2023-02-19T06:24:13;99904.75;;;13.72;51.25
26531;BME280;14201;43.188;24.160;2023-02-19T06:26:39;99908.56;;;14.08;50.02
26531;BME280;14201;43.188;24.160;2023-02-19T06:29:04;99910.31;;;14.36;49.93
26531;BME280;14201;43.188;24.160;2023-02-19T06:31:30;99911.41;;;14.43;48.58
26531;BME280;14201;43.188;24.160;2023-02-19T06:33:55;99926.22;;;14.42;48.95
26531;BME280;14201;43.188;24.160;2023-02-19T06:36:21;99927.91;;;14.40;47.73
26531;BME280;14201;43.188;24.160;2023-02-19T06:38:47;99929.50;;;14.08;48.14
26531;BME280;14201;43.188;24.160;2023-02-19T06:41:12;99918.53;;;13.92;48.73
26531;BME280;14201;43.188;24.160;2023-02-19T06:43:38;99924.06;;;13.76;49.58
26531;BME280;14201;43.188;24.160;2023-02-19T06:46:04;99917.53;;;13.89;49.24
26531;BME280;14201;43.188;24.160;2023-02-19T06:48:29;99912.72;;;13.75;49.67
26531;BME280;14201;43.188;24.160;2023-02-19T06:50:55;99915.97;;;13.94;49.43
26531;BME280;14201;43.188;24.160;2023-02-19T06:53:21;99918.38;;;14.15;49.19
26531;BME280;14201;43.188;24.160;2023-02-19T06:58:21;99901.66;;;14.66;48.75
26531;BME280;14201;43.188;24.160;2023-02-19T07:00:46;99900.31;;;14.80;48.17
26531;BME280;14201;43.188;24.160;2023-02-19T07:03:12;99904.75;;;15.13;48.36
26531;BME280;14201;43.188;24.160;2023-02-19T07:05:37;99894.84;;;15.34;47.30
26531;BME280;14201;43.188;24.160;2023-02-19T07:08:03;99898.09;;;15.58;47.75
26531;BME280;14201;43.188;24.160;2023-02-19T07:10:29;99893.53;;;15.84;47.31
26531;BME280;14201;43.188;24.160;2023-02-19T07:12:54;99889.94;;;16.17;46.26
26531;BME280;14201;43.188;24.160;2023-02-19T07:15:20;99880.44;;;16.22;46.60
26531;BME280;14201;43.188;24.160;2023-02-19T07:17:46;99909.19;;;16.53;46.14
26531;BME280;14201;43.188;24.160;2023-02-19T07:20:12;99895.63;;;16.74;45.54
26531;BME280;14201;43.188;24.160;2023-02-19T07:22:37;99900.59;;;17.00;45.32
26531;BME280;14201;43.188;24.160;2023-02-19T07:25:03;99894.16;;;17.30;44.92
26531;BME280;14201;43.188;24.160;2023-02-19T07:27:28;99889.09;;;17.41;44.84
26531;BME280;14201;43.188;24.160;2023-02-19T07:29:54;99896.34;;;17.54;44.71
26531;BME280;14201;43.188;24.160;2023-02-19T07:32:20;99901.25;;;17.83;43.96
26531;BME280;14201;43.188;24.160;2023-02-19T07:34:45;99908.44;;;17.90;43.96
26531;BME280;14201;43.188;24.160;2023-02-19T07:37:11;99907.84;;;18.08;43.10
26531;BME280;14201;43.188;24.160;2023-02-19T07:39:36;99907.41;;;17.83;42.78
26531;BME280;14201;43.188;24.160;2023-02-19T07:42:02;99900.44;;;17.84;43.04
26531;BME280;14201;43.188;24.160;2023-02-19T07:44:28;99895.19;;;17.84;43.10
26531;BME280;14201;43.188;24.160;2023-02-19T07:46:53;99919.50;;;18.21;43.51
26531;BME280;14201;43.188;24.160;2023-02-19T07:49:19;99927.84;;;18.50;42.66
26531;BME280;14201;43.188;24.160;2023-02-19T07:51:45;99920.06;;;18.58;42.65
26531;BME280;14201;43.188;24.160;2023-02-19T07:54:10;99914.81;;;18.62;41.51
26531;BME280;14201;43.188;24.160;2023-02-19T07:56:36;99930.03;;;18.79;41.70
26531;BME280;14201;43.188;24.160;2023-02-19T07:59:01;99929.47;;;19.03;41.84
26531;BME280;14201;43.188;24.160;2023-02-19T08:01:27;99921.47;;;18.95;41.47
26531;BME280;14201;43.188;24.160;2023-02-19T08:04:12;99908.66;;;19.31;40.50
26531;BME280;14201;43.188;24.160;2023-02-19T08:06:39;99922.88;;;19.42;40.03
26531;BME280;14201;43.188;24.160;2023-02-19T08:09:05;99923.13;;;19.63;40.86
26531;BME280;14201;43.188;24.160;2023-02-19T08:11:31;99926.91;;;19.89;40.26
26531;BME280;14201;43.188;24.160;2023-02-19T08:14:16;99933.38;;;20.21;38.86
26531;BME280;14201;43.188;24.160;2023-02-19T08:16:49;99918.44;;;20.31;39.77
26531;BME280;14201;43.188;24.160;2023-02-19T08:19:15;99916.91;;;20.62;37.62
26531;BME280;14201;43.188;24.160;2023-02-19T08:21:40;99917.88;;;20.80;38.37
26531;BME280;14201;43.188;24.160;2023-02-19T08:24:06;99911.81;;;21.01;36.98
26531;BME280;14201;43.188;24.160;2023-02-19T08:26:32;99902.13;;;21.11;36.39
26531;BME280;14201;43.188;24.160;2023-02-19T08:28:58;99899.50;;;21.12;35.77
26531;BME280;14201;43.188;24.160;2023-02-19T08:31:24;99886.16;;;20.86;36.58
26531;BME280;14201;43.188;24.160;2023-02-19T08:33:51;99888.84;;;20.98;35.57
26531;BME280;14201;43.188;24.160;2023-02-19T08:36:17;99877.34;;;20.84;35.31
26531;BME280;14201;43.188;24.160;2023-02-19T08:38:44;99887.13;;;21.08;35.63
26531;BME280;14201;43.188;24.160;2023-02-19T08:41:11;99880.13;;;21.26;35.73
26531;BME280;14201;43.188;24.160;2023-02-19T08:43:38;99881.00;;;21.34;36.24
26531;BME280;14201;43.188;24.160;2023-02-19T08:46:04;99887.25;;;21.45;34.82
26531;BME280;14201;43.188;24.160;2023-02-19T08:48:31;99885.44;;;21.38;35.50
26531;BME280;14201;43.188;24.160;2023-02-19T08:51:02;99893.38;;;21.21;34.96
26531;BME280;14201;43.188;24.160;2023-02-19T08:53:30;99880.19;;;21.44;34.84
26531;BME280;14201;43.188;24.160;2023-02-19T08:55:56;99870.50;;;21.66;34.09
26531;BME280;14201;43.188;24.160;2023-02-19T08:58:22;99882.88;;;21.64;34.21
26531;BME280;14201;43.188;24.160;2023-02-19T09:00:50;99880.25;;;21.81;34.44
26531;BME280;14201;43.188;24.160;2023-02-19T09:03:16;99880.22;;;21.89;34.36
26531;BME280;14201;43.188;24.160;2023-02-19T09:05:42;99878.47;;;22.03;33.78
26531;BME280;14201;43.188;24.160;2023-02-19T09:08:11;99874.03;;;22.19;33.53
26531;BME280;14201;43.188;24.160;2023-02-19T09:10:37;99872.25;;;22.06;33.52
26531;BME280;14201;43.188;24.160;2023-02-19T09:13:03;99873.13;;;22.21;33.57
26531;BME280;14201;43.188;24.160;2023-02-19T09:15:29;99873.16;;;22.35;33.52
26531;BME280;14201;43.188;24.160;2023-02-19T09:17:55;99886.38;;;22.55;33.02
26531;BME280;14201;43.188;24.160;2023-02-19T09:20:20;99895.19;;;22.73;32.93
26531;BME280;14201;43.188;24.160;2023-02-19T09:22:46;99885.47;;;22.67;32.75
26531;BME280;14201;43.188;24.160;2023-02-19T09:25:12;99887.28;;;22.45;33.76
26531;BME280;14201;43.188;24.160;2023-02-19T09:27:37;99894.28;;;22.66;33.98
26531;BME280;14201;43.188;24.160;2023-02-19T09:30:03;99881.88;;;22.80;32.24
26531;BME280;14201;43.188;24.160;2023-02-19T09:32:30;99884.44;;;23.02;32.77
26531;BME280;14201;43.188;24.160;2023-02-19T09:34:56;99880.91;;;23.05;32.67
26531;BME280;14201;43.188;24.160;2023-02-19T09:37:28;99887.09;;;23.13;31.75
26531;BME280;14201;43.188;24.160;2023-02-19T09:39:54;99885.34;;;23.07;32.17
26531;BME280;14201;43.188;24.160;2023-02-19T09:42:22;99871.28;;;22.71;32.07
26531;BME280;14201;43.188;24.160;2023-02-19T09:44:52;99879.34;;;22.25;33.45
26531;BME280;14201;43.188;24.160;2023-02-19T09:47:21;99878.44;;;22.38;32.62
26531;BME280;14201;43.188;24.160;2023-02-19T09:49:56;99878.44;;;22.38;32.96
26531;BME280;14201;43.188;24.160;2023-02-19T09:54:58;99874.81;;;22.75;33.06
26531;BME280;14201;43.188;24.160;2023-02-19T09:57:25;99867.63;;;23.09;32.33
26531;BME280;14201;43.188;24.160;2023-02-19T09:59:58;99860.47;;;23.16;32.19
26531;BME280;14201;43.188;24.160;2023-02-19T10:02:26;99864.97;;;23.08;32.62
26531;BME280;14201;43.188;24.160;2023-02-19T10:04:54;99850.84;;;22.90;33.01
26531;BME280;14201;43.188;24.160;2023-02-19T10:07:23;99858.75;;;23.10;33.02
26531;BME280;14201;43.188;24.160;2023-02-19T10:09:58;99864.00;;;23.23;32.62
26531;BME280;14201;43.188;24.160;2023-02-19T10:12:29;99860.53;;;23.02;33.28
26531;BME280;14201;43.188;24.160;2023-02-19T10:15:00;99864.91;;;23.15;32.80
26531;BME280;14201;43.188;24.160;2023-02-19T10:17:30;99857.09;;;22.75;33.62
26531;BME280;14201;43.188;24.160;2023-02-19T10:19:59;99849.22;;;22.52;34.22
26531;BME280;14201;43.188;24.160;2023-02-19T10:22:28;99839.34;;;22.87;34.20
26531;BME280;14201;43.188;24.160;2023-02-19T10:24:54;99841.88;;;23.17;33.00
26531;BME280;14201;43.188;24.160;2023-02-19T10:27:21;99839.16;;;23.27;32.58
26531;BME280;14201;43.188;24.160;2023-02-19T10:29:48;99833.72;;;23.45;32.41
26531;BME280;14201;43.188;24.160;2023-02-19T10:34:43;99816.72;;;23.65;32.32
26531;BME280;14201;43.188;24.160;2023-02-19T10:37:16;99824.50;;;23.92;31.93
26531;BME280;14201;43.188;24.160;2023-02-19T10:39:45;99817.19;;;24.13;31.93
26531;BME280;14201;43.188;24.160;2023-02-19T10:42:18;99800.38;;;24.11;31.59
26531;BME280;14201;43.188;24.160;2023-02-19T10:44:47;99801.28;;;24.07;31.67
26531;BME280;14201;43.188;24.160;2023-02-19T10:47:21;99789.06;;;23.87;31.22
26531;BME280;14201;43.188;24.160;2023-02-19T10:49:49;99795.19;;;23.97;32.00
26531;BME280;14201;43.188;24.160;2023-02-19T10:52:26;99774.66;;;24.10;30.96
26531;BME280;14201;43.188;24.160;2023-02-19T10:55:42;99777.34;;;24.07;31.11
26531;BME280;14201;43.188;24.160;2023-02-19T10:57:42;99771.22;;;23.98;31.26
26531;BME280;14201;43.188;24.160;2023-02-19T11:02:40;99775.63;;;24.01;32.20
26531;BME280;14201;43.188;24.160;2023-02-19T11:07:54;99758.69;;;24.10;32.03
26531;BME280;14201;43.188;24.160;2023-02-19T11:12:54;99754.78;;;24.38;32.32
26531;BME280;14201;43.188;24.160;2023-02-19T11:20:38;99744.78;;;24.62;30.46
26531;BME280;14201;43.188;24.160;2023-02-19T11:23:17;99732.75;;;24.27;31.11
26531;BME280;14201;43.188;24.160;2023-02-19T11:25:48;99736.09;;;24.45;31.92
26531;BME280;14201;43.188;24.160;2023-02-19T11:28:36;99734.41;;;24.34;31.40
26531;BME280;14201;43.188;24.160;2023-02-19T11:33:49;99718.84;;;24.73;30.88
26531;BME280;14201;43.188;24.160;2023-02-19T11:36:25;99706.63;;;24.59;30.65
26531;BME280;14201;43.188;24.160;2023-02-19T11:38:52;99704.28;;;24.31;31.82
26531;BME280;14201;43.188;24.160;2023-02-19T11:53:31;99682.66;;;25.16;30.80
26531;BME280;14201;43.188;24.160;2023-02-19T11:58:57;99682.56;;;25.24;31.10
26531;BME280;14201;43.188;24.160;2023-02-19T12:01:52;99680.06;;;25.13;31.23
26531;BME280;14201;43.188;24.160;2023-02-19T12:12:21;99672.03;;;25.14;31.32
26531;BME280;14201;43.188;24.160;2023-02-19T12:20:33;99653.44;;;25.10;31.33
26531;BME280;14201;43.188;24.160;2023-02-19T12:34:34;99628.91;;;24.89;31.56
26531;BME280;14201;43.188;24.160;2023-02-19T12:39:32;99615.34;;;25.03;31.43
26531;BME280;14201;43.188;24.160;2023-02-19T12:44:42;99607.59;;;24.89;31.33
26531;BME280;14201;43.188;24.160;2023-02-19T12:47:20;99594.28;;;24.88;31.43
26531;BME280;14201;43.188;24.160;2023-02-19T12:49:52;99589.88;;;24.85;31.95
26531;BME280;14201;43.188;24.160;2023-02-19T12:52:34;99598.06;;;24.74;32.28
26531;BME280;14201;43.188;24.160;2023-02-19T12:55:28;99586.22;;;24.91;31.45
26531;BME280;14201;43.188;24.160;2023-02-19T12:57:58;99585.44;;;24.87;30.14
26531;BME280;14201;43.188;24.160;2023-02-19T13:03:25;99582.19;;;24.68;31.58
26531;BME280;14201;43.188;24.160;2023-02-19T13:06:23;99575.38;;;24.46;31.27
26531;BME280;14201;43.188;24.160;2023-02-19T13:11:51;99564.75;;;24.46;31.77
26531;BME280;14201;43.188;24.160;2023-02-19T13:14:38;99550.19;;;24.09;31.29
26531;BME280;14201;43.188;24.160;2023-02-19T13:20:02;99538.75;;;23.30;32.29
26531;BME280;14201;43.188;24.160;2023-02-19T13:22:38;99538.56;;;22.57;33.25
26531;BME280;14201;43.188;24.160;2023-02-19T13:25:45;99539.69;;;22.22;35.12
26531;BME280;14201;43.188;24.160;2023-02-19T13:31:42;99528.81;;;22.59;33.56
26531;BME280;14201;43.188;24.160;2023-02-19T13:36:59;99526.41;;;22.28;34.08
26531;BME280;14201;43.188;24.160;2023-02-19T13:39:25;99536.91;;;22.39;34.82
26531;BME280;14201;43.188;24.160;2023-02-19T13:41:55;99528.00;;;22.51;34.12
26531;BME280;14201;43.188;24.160;2023-02-19T13:44:24;99521.78;;;22.49;33.36
26531;BME280;14201;43.188;24.160;2023-02-19T13:46:50;99514.03;;;22.26;34.05
26531;BME280;14201;43.188;24.160;2023-02-19T13:51:59;99512.59;;;21.68;35.64
26531;BME280;14201;43.188;24.160;2023-02-19T13:54:31;99514.22;;;21.92;35.50
26531;BME280;14201;43.188;24.160;2023-02-19T14:06:05;99510.66;;;22.00;34.41
26531;BME280;14201;43.188;24.160;2023-02-19T14:08:52;99502.81;;;21.77;34.63
26531;BME280;14201;43.188;24.160;2023-02-19T14:16:56;99492.16;;;21.83;34.66
26531;BME280;14201;43.188;24.160;2023-02-19T14:25:31;99485.13;;;21.78;34.63
26531;BME280;14201;43.188;24.160;2023-02-19T14:27:59;99484.34;;;21.63;35.01
26531;BME280;14201;43.188;24.160;2023-02-19T14:30:27;99477.34;;;21.50;35.33
26531;BME280;14201;43.188;24.160;2023-02-19T14:32:54;99477.38;;;21.30;35.35
26531;BME280;14201;43.188;24.160;2023-02-19T14:35:25;99473.03;;;21.12;36.08
26531;BME280;14201;43.188;24.160;2023-02-19T14:37:54;99472.16;;;21.01;36.14
26531;BME280;14201;43.188;24.160;2023-02-19T14:40:27;99473.91;;;21.07;36.13
26531;BME280;14201;43.188;24.160;2023-02-19T14:42:56;99473.91;;;21.07;36.13
26531;BME280;14201;43.188;24.160;2023-02-19T14:45:23;99473.06;;;21.08;36.13
26531;BME280;14201;43.188;24.160;2023-02-19T14:47:50;99472.16;;;20.99;36.48
26531;BME280;14201;43.188;24.160;2023-02-19T14:50:34;99480.13;;;21.02;36.84
26531;BME280;14201;43.188;24.160;2023-02-19T14:53:03;99471.28;;;21.10;36.94
26531;BME280;14201;43.188;24.160;2023-02-19T14:55:36;99473.03;;;21.14;36.58
26531;BME280;14201;43.188;24.160;2023-02-19T14:58:09;99471.28;;;21.11;36.60
26531;BME280;14201;43.188;24.160;2023-02-19T15:00:40;99469.50;;;21.12;37.02
26531;BME280;14201;43.188;24.160;2023-02-19T15:03:23;99466.84;;;21.10;36.78
26531;BME280;14201;43.188;24.160;2023-02-19T15:05:54;99461.56;;;21.04;37.20
26531;BME280;14201;43.188;24.160;2023-02-19T15:08:27;99472.16;;;21.07;37.53